»·PEaware :: DAL1614 KLAS-KSLC

DAL1614 :: KLAS-KSLC

FLIGHT INFORMATION

Flight Status: Arrived
Operator:
Delta Air Lines
More flights by this operator :: More flights under this callsign
Pilot: John C. (18682)
Aircraft: BOEING 737-800
(B738)
More flights by this aircraft type
Origin: KLAS McCarran Intl
United States
Destination: KSLC Salt Lake City Intl
United States
More flights between these airports :: More routes between these airports
Route: TRLAR8 MLF DELTA5
File this flight plan on PilotEdge
Remarks:
Altitude:
(Current/Filed)
31,000ft
Speed:
(Current/Filed)
432kts
Departed: 11-Jan-21 05:55 PM
Arrived: 11-Jan-21 07:03 PM
Distance/Time
Traveled:
319nm/1:07
Distance/Time
To Go:
Arrived

Flight Plot

Page will automatically refresh every two minutes.

Flight plan parsing failed; only flown route is shown


Map Options




Map Legend


Flown Route
Filed Route
Departure Airport
Arrival Airport
Navaid (VOR, NDB)
Fix

Horizontal Profiles

Position Reports

Time Latitude Longitude Heading Altitude Ground
Speed
11-Jan-21 17:29 36.080501 -115.139083 315 2072ft 0kts
11-Jan-21 17:30 36.080501 -115.139083 315 2072ft 0kts
11-Jan-21 17:31 36.080501 -115.139083 315 2072ft 0kts
11-Jan-21 17:32 36.080501 -115.139083 315 2072ft 0kts
11-Jan-21 17:33 36.080501 -115.139083 315 2072ft 0kts
11-Jan-21 17:34 36.080501 -115.139083 315 2072ft 0kts
11-Jan-21 17:35 36.080501 -115.139083 315 2072ft 0kts
11-Jan-21 17:36 36.080501 -115.139083 315 2072ft 0kts
11-Jan-21 17:37 36.080501 -115.139083 315 2072ft 0kts
11-Jan-21 17:38 36.080501 -115.139083 315 2072ft 0kts
11-Jan-21 17:39 36.080501 -115.139083 315 2072ft 0kts
11-Jan-21 17:40 36.080501 -115.139083 315 2072ft 0kts
11-Jan-21 17:41 36.080501 -115.139083 315 2072ft 0kts
11-Jan-21 17:42 36.080285 -115.138815 315 2071ft 2kts
11-Jan-21 17:43 36.079953 -115.138253 261 2070ft 2kts
11-Jan-21 17:44 36.080069 -115.138013 223 2069ft 0kts
11-Jan-21 17:45 36.080069 -115.138013 223 2069ft 0kts
11-Jan-21 17:46 36.079313 -115.138952 225 2075ft 7kts
11-Jan-21 17:47 36.079029 -115.139306 225 2077ft 0kts
11-Jan-21 17:48 36.078272 -115.142429 269 2088ft 16kts
11-Jan-21 17:49 36.078008 -115.147371 229 2104ft 10kts
11-Jan-21 17:50 36.078041 -115.152882 271 2124ft 20kts
11-Jan-21 17:51 36.078028 -115.159977 270 2149ft 18kts
11-Jan-21 17:52 36.077436 -115.161271 183 2156ft 0kts
11-Jan-21 17:53 36.076390 -115.160620 91 2157ft 1kts
11-Jan-21 17:54 36.076410 -115.123897 90 2612ft 176kts
11-Jan-21 17:55 36.076548 -115.057539 89 4243ft 231kts
11-Jan-21 17:56 36.076027 -114.969291 88 6724ft 270kts
11-Jan-21 17:57 36.088748 -114.876420 76 9785ft 281kts
11-Jan-21 17:58 36.106462 -114.772019 76 11689ft 333kts
11-Jan-21 17:59 36.125524 -114.658432 76 14576ft 345kts
11-Jan-21 18:00 36.145297 -114.540029 75 17302ft 358kts
11-Jan-21 18:01 36.165686 -114.417233 74 19757ft 371kts
11-Jan-21 18:03 36.187026 -114.290648 72 21950ft 382kts
11-Jan-21 18:04 36.224478 -114.166728 61 23953ft 389kts
11-Jan-21 18:05 36.271795 -114.044398 60 25757ft 400kts
11-Jan-21 18:06 36.320460 -113.918841 59 27391ft 410kts
11-Jan-21 18:07 36.370332 -113.789837 59 28870ft 419kts
11-Jan-21 18:08 36.425974 -113.662149 44 30193ft 420kts
11-Jan-21 18:09 36.523565 -113.591187 12 31350ft 411kts
11-Jan-21 18:10 36.633216 -113.558204 11 31348ft 406kts
11-Jan-21 18:11 36.743176 -113.525217 11 31347ft 407kts
11-Jan-21 18:12 36.852838 -113.492168 11 31348ft 406kts
11-Jan-21 18:13 36.962633 -113.458973 11 31347ft 407kts
11-Jan-21 18:14 37.074069 -113.425188 10 31352ft 419kts
11-Jan-21 18:15 37.188459 -113.390384 10 31355ft 425kts
11-Jan-21 18:16 37.302310 -113.355629 10 31358ft 424kts
11-Jan-21 18:16 37.397819 -113.326310 11 31370ft 423kts
11-Jan-21 18:18 37.530514 -113.283388 11 31383ft 423kts
11-Jan-21 18:19 37.644216 -113.246697 11 31384ft 423kts
11-Jan-21 18:19 37.739172 -113.216037 11 31384ft 423kts
11-Jan-21 18:20 37.853188 -113.179144 11 31384ft 423kts
11-Jan-21 18:21 37.967101 -113.142176 11 31386ft 423kts
11-Jan-21 18:23 38.099649 -113.099012 11 31397ft 422kts
11-Jan-21 18:23 38.194222 -113.068118 11 31401ft 422kts
11-Jan-21 18:24 38.308150 -113.030791 11 31402ft 422kts
11-Jan-21 18:25 38.418511 -112.981326 19 31402ft 421kts
11-Jan-21 18:26 38.526086 -112.924759 19 31402ft 418kts
11-Jan-21 18:27 38.632926 -112.867910 19 31402ft 415kts
11-Jan-21 18:28 38.738836 -112.811231 19 31402ft 411kts
11-Jan-21 18:29 38.843780 -112.754852 20 31402ft 410kts
11-Jan-21 18:30 38.949437 -112.697633 19 31403ft 417kts
11-Jan-21 18:31 39.057529 -112.639070 19 31403ft 429kts
11-Jan-21 18:32 39.167006 -112.579595 19 31402ft 427kts
11-Jan-21 18:33 39.274416 -112.521122 18 31406ft 406kts
11-Jan-21 18:34 39.383250 -112.479421 11 31423ft 409kts
11-Jan-21 18:35 39.491357 -112.443127 11 29868ft 399kts
11-Jan-21 18:36 39.597828 -112.407618 12 27449ft 391kts
11-Jan-21 18:37 39.701556 -112.373000 12 25105ft 381kts
11-Jan-21 18:38 39.802384 -112.339253 13 22849ft 369kts
11-Jan-21 18:39 39.899699 -112.306561 13 20679ft 357kts
11-Jan-21 18:40 39.994043 -112.274794 13 18558ft 346kts
11-Jan-21 18:41 40.084730 -112.244020 13 17026ft 324kts
11-Jan-21 18:42 40.171394 -112.214597 13 16017ft 320kts
11-Jan-21 18:43 40.256942 -112.185546 14 15012ft 315kts
11-Jan-21 18:44 40.338331 -112.157809 14 14223ft 294kts
11-Jan-21 18:45 40.418941 -112.130314 14 14044ft 306kts
11-Jan-21 18:46 40.501260 -112.102206 14 13128ft 289kts
11-Jan-21 18:47 40.582592 -112.081299 3 12125ft 299kts
11-Jan-21 18:48 40.664578 -112.081427 354 11084ft 297kts
11-Jan-21 18:49 40.743478 -112.090930 354 11012ft 258kts
11-Jan-21 18:50 40.808481 -112.098645 354 11016ft 229kts
11-Jan-21 18:51 40.871996 -112.106181 354 11007ft 229kts
11-Jan-21 18:52 40.935552 -112.113736 355 11000ft 229kts
11-Jan-21 18:53 40.999082 -112.121300 354 10997ft 229kts
11-Jan-21 18:54 41.062679 -112.128889 353 10997ft 229kts
11-Jan-21 18:55 41.100492 -112.074584 89 9928ft 242kts
11-Jan-21 18:56 41.087518 -111.989921 139 8653ft 242kts
11-Jan-21 18:57 41.025246 -111.991982 205 7447ft 233kts
11-Jan-21 18:58 40.965377 -112.020610 178 6510ft 231kts
11-Jan-21 18:59 40.905163 -112.010669 173 5729ft 203kts
11-Jan-21 19:00 40.853543 -112.004498 176 5112ft 160kts
11-Jan-21 19:01 40.809805 -111.999425 176 4337ft 153kts
11-Jan-21 19:02 40.787573 -111.995883 136 4236ft 12kts
11-Jan-21 19:03 40.787553 -111.993589 85 4236ft 13kts
11-Jan-21 19:04 40.788185 -111.987949 82 4236ft 12kts
11-Jan-21 19:05 40.788441 -111.985412 71 4236ft 0kts
11-Jan-21 19:06 40.788440 -111.985412 71 4236ft 0kts
11-Jan-21 19:07 40.788440 -111.985412 71 4236ft 0kts

Navigation Log

Ident Type
Flight plan parsing failed, navigation log unavailable